Time;durP1;ratioP1;P1;durP2;ratioP2;P2;SDS_P1;SDS_P2;PMS_P1;PMS_P2;Temp;Humidity;BMP_temperature;BMP_pressure;BME280_temperature;BME280_humidity;BME280_pressure;Samples;Min_cycle;Max_cycle;Signal;HPM_P1;HPM_P2
2023/05/29 00:00:09;;;;;;;7.50;6.20;;;;;;;16.38;63.57;98682.16;5008598;28;103331;-68
2023/05/29 00:02:58;;;;;;;7.05;6.18;;;;;;;16.58;62.50;98681.09;5009777;28;102970;-68
2023/05/29 00:05:46;;;;;;;6.23;5.63;;;;;;;16.70;61.90;98681.75;5012871;28;102879;-69
2023/05/29 00:08:38;;;;;;;9.05;7.18;;;;;;;16.36;62.95;98688.63;4997251;28;104396;-69
2023/05/29 00:11:26;;;;;;;9.95;6.80;;;;;;;15.87;64.75;98682.59;5006114;27;103034;-69
2023/05/29 00:14:19;;;;;;;7.90;6.32;;;;;;;16.18;64.59;98691.19;5004071;28;103536;-68
2023/05/29 00:17:09;;;;;;;7.60;6.55;;;;;;;15.99;65.17;98685.94;4994286;28;102922;-69
2023/05/29 00:19:58;;;;;;;7.55;6.40;;;;;;;16.26;64.15;98677.97;5008320;28;103071;-69
2023/05/29 00:22:46;;;;;;;7.78;6.63;;;;;;;14.96;67.66;98684.91;5009914;28;103025;-68
2023/05/29 00:25:34;;;;;;;8.40;6.50;;;;;;;14.81;68.87;98686.28;4997008;28;102990;-69
2023/05/29 00:28:23;;;;;;;8.20;5.93;;;;;;;15.80;64.85;98675.34;5008753;28;102702;-67
2023/05/29 00:31:11;;;;;;;9.77;6.78;;;;;;;14.74;69.05;98679.81;5007706;27;103149;-69
2023/05/29 00:34:02;;;;;;;5.68;5.03;;;;;;;15.69;65.82;98675.50;4994577;27;103550;-68
2023/05/29 00:36:50;;;;;;;7.13;6.00;;;;;;;16.14;63.80;98664.00;4993681;27;103043;-69
2023/05/29 00:39:42;;;;;;;8.80;6.65;;;;;;;15.43;67.02;98668.09;4995230;28;102610;-69
2023/05/29 00:42:30;;;;;;;6.05;5.05;;;;;;;15.96;65.10;98675.56;4996300;28;103083;-69
2023/05/29 00:45:19;;;;;;;7.82;6.90;;;;;;;15.45;66.44;98676.78;5013025;27;103054;-69
2023/05/29 00:48:08;;;;;;;6.93;6.23;;;;;;;15.84;65.34;98671.41;5010372;28;102644;-69
2023/05/29 00:50:57;;;;;;;6.75;4.82;;;;;;;16.22;63.62;98666.75;5007451;27;102606;-68
2023/05/29 00:53:51;;;;;;;6.75;5.53;;;;;;;16.29;62.91;98667.03;4990491;28;104525;-68
2023/05/29 00:56:42;;;;;;;8.70;6.55;;;;;;;14.90;69.18;98664.19;4996552;27;103040;-68
2023/05/29 00:59:32;;;;;;;7.83;6.43;;;;;;;15.15;68.19;98663.63;5002675;28;102877;-69
2023/05/29 01:02:22;;;;;;;6.32;5.28;;;;;;;15.72;65.73;98661.91;5011744;28;102874;-68
2023/05/29 01:05:11;;;;;;;6.90;6.20;;;;;;;15.31;67.08;98663.91;5006751;28;103036;-68
2023/05/29 01:08:01;;;;;;;6.00;5.40;;;;;;;15.84;64.62;98663.41;4985490;28;102941;-68
2023/05/29 01:10:56;;;;;;;7.05;5.60;;;;;;;15.67;64.98;98657.00;4993700;28;103077;-68
2023/05/29 01:13:46;;;;;;;7.65;6.30;;;;;;;15.39;66.16;98663.19;4997466;28;102675;-68
2023/05/29 01:16:41;;;;;;;5.82;5.22;;;;;;;15.80;64.53;98651.38;4996328;28;104269;-69
2023/05/29 01:19:47;;;;;;;7.15;5.45;;;;;;;15.90;64.02;98662.81;5012430;28;103531;-69
2023/05/29 01:23:13;;;;;;;4.82;4.43;;;;;;;16.09;63.31;98662.75;4995150;28;102743;-68
2023/05/29 01:26:25;;;;;;;6.28;5.55;;;;;;;16.10;63.57;98662.63;5004857;28;102682;-69
2023/05/29 01:29:23;;;;;;;6.38;5.50;;;;;;;16.05;63.01;98654.25;4997171;28;103064;-69
2023/05/29 01:32:12;;;;;;;6.13;5.00;;;;;;;16.14;62.52;98653.34;4995869;28;103356;-69
2023/05/29 01:35:00;;;;;;;6.47;5.82;;;;;;;16.06;62.78;98655.06;5010143;28;103770;-69
2023/05/29 01:37:48;;;;;;;5.25;4.45;;;;;;;16.04;63.19;98662.38;5008764;28;104401;-68
2023/05/29 01:40:36;;;;;;;6.78;6.07;;;;;;;16.01;63.54;98652.84;4994918;28;103107;-69
2023/05/29 01:43:25;;;;;;;6.75;5.45;;;;;;;16.05;62.83;98653.41;4995050;28;102976;-68
2023/05/29 01:46:15;;;;;;;7.45;6.65;;;;;;;15.84;63.80;98656.25;4999418;28;102717;-68
2023/05/29 01:49:04;;;;;;;8.93;6.87;;;;;;;14.78;68.38;98659.94;4996300;28;102678;-69
2023/05/29 01:51:52;;;;;;;7.38;5.43;;;;;;;15.25;67.08;98661.78;4995849;28;102979;-68
2023/05/29 01:54:41;;;;;;;5.78;5.18;;;;;;;15.51;65.65;98665.59;5010215;28;103011;-69
2023/05/29 01:57:29;;;;;;;5.20;4.67;;;;;;;15.71;64.48;98670.88;4994799;28;102632;-68
2023/05/29 02:00:20;;;;;;;5.90;5.30;;;;;;;15.79;64.07;98674.50;4994700;28;103010;-68
2023/05/29 02:03:09;;;;;;;6.67;5.40;;;;;;;15.83;63.64;98673.22;4999225;28;103069;-68
2023/05/29 02:06:01;;;;;;;6.28;5.65;;;;;;;15.77;63.85;98667.66;5003356;28;103259;-68
2023/05/29 02:08:49;;;;;;;7.93;6.28;;;;;;;15.68;64.69;98673.81;4995404;28;103860;-69
2023/05/29 02:11:37;;;;;;;6.70;5.72;;;;;;;15.74;64.06;98675.91;4996878;28;103023;-68
2023/05/29 02:14:25;;;;;;;5.20;4.70;;;;;;;15.81;63.95;98669.88;4997814;28;102981;-69
2023/05/29 02:17:16;;;;;;;6.20;5.40;;;;;;;15.78;64.30;98667.47;4996938;28;103347;-68
2023/05/29 02:20:07;;;;;;;6.57;5.47;;;;;;;15.92;63.57;98669.69;5006954;28;103442;-69
2023/05/29 02:22:55;;;;;;;4.80;4.32;;;;;;;16.00;62.02;98672.47;4997138;28;102854;-69
2023/05/29 02:25:45;;;;;;;6.78;5.78;;;;;;;15.93;63.10;98665.22;5000291;28;103119;-69
2023/05/29 02:28:33;;;;;;;7.80;6.68;;;;;;;15.41;65.47;98672.69;5013604;28;103650;-69
2023/05/29 02:31:22;;;;;;;5.68;5.07;;;;;;;15.46;65.59;98651.88;4992807;28;103277;-69
2023/05/29 02:34:10;;;;;;;5.40;4.88;;;;;;;15.59;64.75;98652.41;5008429;28;102750;-69
2023/05/29 02:36:59;;;;;;;6.68;5.65;;;;;;;15.64;64.40;98655.47;5009717;28;103546;-68
2023/05/29 02:39:47;;;;;;;6.88;5.63;;;;;;;15.67;64.27;98659.66;4999106;28;102925;-69
2023/05/29 02:42:37;;;;;;;5.15;4.65;;;;;;;15.65;64.06;98665.16;4995885;28;104072;-69
2023/05/29 02:45:25;;;;;;;4.93;4.43;;;;;;;15.73;63.90;98658.25;4993721;28;102782;-69
2023/05/29 02:48:16;;;;;;;5.88;5.18;;;;;;;15.64;64.53;98665.28;4993939;28;103179;-69
2023/05/29 02:51:04;;;;;;;6.75;6.00;;;;;;;15.63;64.26;98653.78;4997443;28;103199;-69
2023/05/29 02:53:53;;;;;;;6.13;5.53;;;;;;;15.60;64.22;98659.41;5004466;27;102762;-68
2023/05/29 02:56:41;;;;;;;6.23;5.57;;;;;;;15.46;65.08;98651.88;5012224;28;103208;-68
2023/05/29 02:59:32;;;;;;;6.20;5.10;;;;;;;15.57;64.78;98650.88;4986468;28;103675;-69
2023/05/29 03:02:21;;;;;;;8.43;6.40;;;;;;;15.36;65.38;98651.00;5016566;28;104297;-69
2023/05/29 03:05:09;;;;;;;5.30;4.80;;;;;;;15.38;65.37;98654.34;5007484;28;102702;-69
2023/05/29 03:07:57;;;;;;;7.68;5.75;;;;;;;15.32;64.69;98654.09;5000156;28;103778;-69
2023/05/29 03:10:47;;;;;;;8.50;6.90;;;;;;;14.53;68.34;98661.31;5009971;27;104400;-69
2023/05/29 03:13:36;;;;;;;7.82;6.50;;;;;;;14.67;68.89;98657.41;4996397;28;103007;-68
2023/05/29 03:16:29;;;;;;;7.43;6.43;;;;;;;14.40;68.76;98661.53;4991367;28;103279;-69
2023/05/29 03:19:18;;;;;;;5.50;4.80;;;;;;;14.72;68.59;98655.19;4998943;28;102813;-69
2023/05/29 03:22:08;;;;;;;7.15;6.38;;;;;;;14.55;68.81;98662.00;4991553;28;103047;-70
2023/05/29 03:25:00;;;;;;;8.40;5.85;;;;;;;14.54;68.49;98662.16;4991331;28;102956;-69
2023/05/29 03:27:50;;;;;;;6.87;6.03;;;;;;;14.75;67.91;98663.72;4995307;28;102701;-69
2023/05/29 03:30:40;;;;;;;6.75;6.05;;;;;;;14.84;66.99;98662.06;4986999;28;103156;-69
2023/05/29 03:33:30;;;;;;;7.63;6.43;;;;;;;14.63;68.29;98656.00;4995670;28;103027;-69
2023/05/29 03:36:37;;;;;;;7.28;6.28;;;;;;;13.87;71.21;98663.53;5008482;28;103004;-69
2023/05/29 03:39:26;;;;;;;6.20;5.38;;;;;;;14.15;70.96;98658.47;5010409;28;102724;-69
2023/05/29 03:42:14;;;;;;;6.50;5.47;;;;;;;14.50;68.46;98661.59;5009688;28;103833;-69
2023/05/29 03:45:05;;;;;;;8.00;6.50;;;;;;;13.92;71.50;98655.19;4993994;28;103184;-68
2023/05/29 03:47:58;;;;;;;7.38;5.85;;;;;;;14.35;69.56;98661.13;4992542;28;103076;-69
2023/05/29 03:50:49;;;;;;;5.87;5.27;;;;;;;14.73;67.67;98664.84;4992695;28;104148;-69
2023/05/29 03:53:45;;;;;;;7.60;5.60;;;;;;;14.69;68.00;98666.09;4997469;28;103164;-69
2023/05/29 03:56:35;;;;;;;8.13;6.10;;;;;;;14.04;71.03;98663.88;5003480;28;103088;-69
2023/05/29 03:59:23;;;;;;;7.13;6.13;;;;;;;14.12;71.14;98672.88;4996373;28;103264;-69
2023/05/29 04:02:13;;;;;;;6.90;5.93;;;;;;;14.02;70.99;98677.31;4994793;28;103113;-69
2023/05/29 04:05:06;;;;;;;8.02;6.72;;;;;;;13.56;73.28;98690.22;4992780;28;102695;-69
2023/05/29 04:07:56;;;;;;;7.30;6.00;;;;;;;13.98;72.05;98689.16;4997459;28;103462;-69
2023/05/29 04:11:03;;;;;;;7.25;5.82;;;;;;;14.33;70.41;98692.31;4991411;28;103253;-69
2023/05/29 04:13:52;;;;;;;6.97;6.18;;;;;;;14.17;71.47;98697.25;4991513;28;102672;-68
2023/05/29 04:16:40;;;;;;;5.00;4.50;;;;;;;14.63;68.79;98699.38;5011768;28;102856;-70
2023/05/29 04:19:29;;;;;;;4.85;4.30;;;;;;;14.85;67.46;98699.16;4996232;28;102915;-68
2023/05/29 04:22:19;;;;;;;7.10;6.18;;;;;;;14.07;71.51;98700.81;4997490;28;103211;-68
2023/05/29 04:25:09;;;;;;;5.60;4.75;;;;;;;14.40;71.15;98704.06;4989144;28;102885;-69
2023/05/29 04:27:57;;;;;;;4.50;4.10;;;;;;;14.86;69.85;98710.63;4991698;28;102704;-69
2023/05/29 04:30:48;;;;;;;7.88;6.45;;;;;;;14.49;71.12;98713.91;4998606;28;103180;-69
2023/05/29 04:33:37;;;;;;;6.87;6.10;;;;;;;14.77;69.33;98714.94;4994027;28;103022;-69
2023/05/29 04:36:32;;;;;;;7.90;6.47;;;;;;;14.29;72.45;98722.75;5011376;27;102660;-68
2023/05/29 04:39:27;;;;;;;5.17;4.67;;;;;;;14.92;69.83;98718.06;4995622;28;102805;-68
2023/05/29 04:42:16;;;;;;;5.20;4.70;;;;;;;15.19;68.57;98718.22;4993313;28;104371;-68
2023/05/29 04:45:05;;;;;;;6.15;4.97;;;;;;;15.34;67.52;98724.00;4990940;28;103039;-68
2023/05/29 04:47:57;;;;;;;6.93;5.80;;;;;;;15.37;68.12;98727.22;4995174;28;102650;-68
2023/05/29 04:50:48;;;;;;;5.05;4.55;;;;;;;15.46;67.67;98734.41;4991834;28;102831;-68
2023/05/29 04:53:38;;;;;;;7.90;6.40;;;;;;;15.50;67.81;98730.47;4991343;28;102962;-68
2023/05/29 04:56:26;;;;;;;6.80;6.10;;;;;;;15.73;66.83;98727.50;4991060;28;103751;-68
2023/05/29 04:59:15;;;;;;;6.10;5.50;;;;;;;15.80;66.31;98733.94;4999310;28;102655;-68
2023/05/29 05:02:03;;;;;;;8.48;6.40;;;;;;;15.87;66.08;98732.38;4993803;28;103039;-68
2023/05/29 05:04:52;;;;;;;7.50;5.85;;;;;;;15.93;65.89;98731.81;5004337;28;103815;-68
2023/05/29 05:07:40;;;;;;;9.50;6.82;;;;;;;15.70;66.95;98733.94;5006074;28;102975;-69
2023/05/29 05:10:29;;;;;;;7.27;6.30;;;;;;;15.88;66.01;98736.72;4998120;28;102937;-68
2023/05/29 05:13:18;;;;;;;7.40;5.53;;;;;;;16.08;66.75;98738.38;4991433;28;102667;-68
2023/05/29 05:16:07;;;;;;;7.00;5.43;;;;;;;16.29;65.85;98741.66;4993018;28;103085;-68
2023/05/29 05:18:55;;;;;;;6.72;5.90;;;;;;;16.45;64.88;98736.53;4999577;28;104011;-68
2023/05/29 05:21:44;;;;;;;6.53;5.43;;;;;;;16.14;66.69;98743.13;4995286;28;102626;-67
2023/05/29 05:24:34;;;;;;;7.35;6.13;;;;;;;16.38;64.92;98738.13;5011442;28;102842;-68
2023/05/29 05:27:25;;;;;;;6.90;6.13;;;;;;;16.52;64.39;98737.66;4999952;28;103288;-68
2023/05/29 05:30:14;;;;;;;5.35;4.47;;;;;;;16.84;63.02;98741.75;4990144;28;103040;-68
2023/05/29 05:33:03;;;;;;;7.03;6.25;;;;;;;16.97;62.52;98742.22;4989842;28;103006;-67
2023/05/29 05:35:52;;;;;;;5.95;5.35;;;;;;;16.99;63.47;98745.56;5003486;28;103714;-67
2023/05/29 05:38:41;;;;;;;6.77;5.50;;;;;;;17.29;62.58;98747.91;4992182;28;103067;-68
2023/05/29 05:41:29;;;;;;;6.57;5.63;;;;;;;17.19;62.30;98736.44;4994246;28;103331;-67
2023/05/29 05:44:19;;;;;;;6.85;5.97;;;;;;;17.48;61.55;98750.44;4997708;28;102809;-68
2023/05/29 05:47:12;;;;;;;6.13;5.53;;;;;;;17.42;61.69;98745.69;5011679;28;102723;-67
2023/05/29 05:50:00;;;;;;;5.93;5.25;;;;;;;17.54;59.80;98747.19;4993545;28;102951;-71
2023/05/29 05:52:49;;;;;;;6.23;5.27;;;;;;;17.13;62.56;98764.59;5004088;27;103354;-66
2023/05/29 05:55:38;;;;;;;5.50;4.60;;;;;;;17.65;61.38;98762.97;5006862;27;102881;-68
2023/05/29 05:58:26;;;;;;;6.38;5.18;;;;;;;17.83;60.42;98765.63;5015570;27;102628;-68
2023/05/29 06:01:16;;;;;;;7.03;5.85;;;;;;;17.54;63.10;98763.22;5009498;28;103040;-67
2023/05/29 06:04:04;;;;;;;7.00;5.65;;;;;;;17.44;64.56;98766.91;5000713;28;103073;-67
2023/05/29 06:06:53;;;;;;;6.30;4.67;;;;;;;17.97;62.90;98767.72;5001048;28;103750;-67
2023/05/29 06:09:41;;;;;;;7.20;5.63;;;;;;;18.20;61.56;98765.38;5015307;28;103029;-67
2023/05/29 06:12:30;;;;;;;7.70;5.80;;;;;;;17.60;62.98;98773.25;4997984;28;103903;-69
2023/05/29 06:15:28;;;;;;;7.82;6.00;;;;;;;17.67;61.89;98785.03;4993491;28;103131;-67
2023/05/29 06:18:17;;;;;;;5.07;4.57;;;;;;;18.26;60.45;98773.63;5005550;28;103054;-68
2023/05/29 06:21:11;;;;;;;6.97;4.97;;;;;;;17.81;58.96;98776.47;5003989;27;103157;-67
2023/05/29 06:24:13;;;;;;;6.35;4.80;;;;;;;18.32;58.74;98781.03;5000693;28;103271;-67
2023/05/29 06:27:02;;;;;;;8.30;5.22;;;;;;;18.35;58.28;98780.72;4996479;27;104288;-68
2023/05/29 06:29:51;;;;;;;10.23;6.28;;;;;;;18.28;62.93;98794.84;5003154;28;102640;-68
2023/05/29 06:32:41;;;;;;;5.97;5.38;;;;;;;18.20;63.39;98784.09;5003900;27;102825;-69
2023/05/29 06:35:31;;;;;;;5.90;4.50;;;;;;;18.46;60.27;98793.81;5002074;27;103134;-68
2023/05/29 06:38:19;;;;;;;6.65;5.00;;;;;;;18.87;57.91;98786.00;4999237;27;102918;-71
2023/05/29 06:41:08;;;;;;;6.43;5.00;;;;;;;18.74;57.32;98796.34;5002296;27;103166;-71
2023/05/29 06:43:56;;;;;;;5.35;4.25;;;;;;;19.13;56.05;98794.81;5006549;27;102745;-72
2023/05/29 06:46:44;;;;;;;6.45;4.60;;;;;;;18.77;57.21;98796.88;5012532;28;102975;-72
2023/05/29 06:49:33;;;;;;;7.38;5.03;;;;;;;18.47;57.59;98798.16;4996805;28;103523;-72
2023/05/29 06:52:22;;;;;;;7.63;4.97;;;;;;;18.54;58.65;98811.78;4999681;28;102823;-72
2023/05/29 06:55:36;;;;;;;7.30;5.10;;;;;;;18.34;57.07;98820.97;5014650;28;102624;-72
2023/05/29 06:58:24;;;;;;;6.50;4.50;;;;;;;19.18;55.86;98807.72;4993285;28;102940;-72
2023/05/29 07:01:12;;;;;;;4.90;4.40;;;;;;;19.30;55.23;98806.44;4988158;28;103488;-72
2023/05/29 07:04:08;;;;;;;4.82;4.30;;;;;;;19.13;54.38;98810.06;4999587;28;103280;-72
2023/05/29 07:06:57;;;;;;;5.80;4.47;;;;;;;19.17;54.65;98824.81;5000813;28;102808;-72
2023/05/29 07:09:47;;;;;;;7.25;4.25;;;;;;;19.42;53.70;98816.72;5000057;28;103002;-72
2023/05/29 07:12:35;;;;;;;6.07;4.60;;;;;;;19.46;53.97;98819.88;5020260;27;103059;-72
2023/05/29 07:15:24;;;;;;;6.35;4.55;;;;;;;19.56;53.35;98812.56;5003524;27;102822;-73
2023/05/29 07:18:13;;;;;;;5.03;4.50;;;;;;;19.86;53.87;98811.91;5023033;27;102649;-72
2023/05/29 07:21:03;;;;;;;6.10;4.18;;;;;;;19.72;52.44;98819.78;5006344;27;103069;-72
2023/05/29 07:23:52;;;;;;;6.17;4.60;;;;;;;19.84;51.12;98813.09;5005277;27;104205;-72
2023/05/29 07:26:41;;;;;;;6.00;4.23;;;;;;;19.29;52.71;98812.78;5003374;28;103358;-73
2023/05/29 07:29:30;;;;;;;4.82;3.90;;;;;;;20.31;50.76;98813.28;5001921;28;102997;-73
2023/05/29 07:32:18;;;;;;;5.97;4.60;;;;;;;20.67;50.96;98817.25;5013859;28;103246;-73
2023/05/29 07:35:07;;;;;;;6.22;4.60;;;;;;;20.56;49.78;98817.59;5013769;28;103097;-73
2023/05/29 07:37:55;;;;;;;6.32;4.60;;;;;;;20.33;50.57;98830.88;4995352;28;102847;-73
2023/05/29 07:40:45;;;;;;;5.78;4.70;;;;;;;20.85;49.05;98815.19;5000688;28;102562;-73
2023/05/29 07:43:50;;;;;;;4.82;4.22;;;;;;;21.12;48.92;98819.31;4998401;28;103054;-73
2023/05/29 07:46:39;;;;;;;5.05;4.28;;;;;;;22.12;47.79;98813.81;4998489;28;103341;-72
2023/05/29 07:49:51;;;;;;;4.70;3.92;;;;;;;22.58;46.38;98813.72;4997631;28;104057;-72
2023/05/29 07:52:44;;;;;;;6.60;4.22;;;;;;;21.43;49.23;98819.31;4995666;28;103323;-72
2023/05/29 07:55:35;;;;;;;5.93;4.82;;;;;;;21.71;48.25;98821.31;4994095;28;103012;-72
2023/05/29 07:58:23;;;;;;;6.03;3.97;;;;;;;22.97;46.01;98809.78;4993171;28;103271;-72
2023/05/29 08:01:13;;;;;;;5.30;4.20;;;;;;;22.06;47.54;98803.78;4993928;28;103475;-72
2023/05/29 08:04:02;;;;;;;5.65;4.60;;;;;;;22.70;46.75;98809.59;4993884;28;102946;-72
2023/05/29 08:06:52;;;;;;;6.70;4.85;;;;;;;22.86;45.83;98812.09;4999392;28;103890;-72
2023/05/29 08:09:43;;;;;;;4.97;4.40;;;;;;;23.40;45.06;98804.53;4998786;28;103790;-71
2023/05/29 08:12:32;;;;;;;5.80;4.43;;;;;;;22.65;47.54;98806.63;4998595;28;103144;-73
2023/05/29 08:15:23;;;;;;;6.72;4.60;;;;;;;23.29;45.56;98805.84;4996650;28;102798;-73
2023/05/29 08:18:16;;;;;;;6.40;4.72;;;;;;;23.50;42.34;98814.00;5006368;28;104115;-73
2023/05/29 08:21:05;;;;;;;5.73;4.47;;;;;;;23.89;42.98;98812.78;5013134;28;103057;-72
2023/05/29 08:23:53;;;;;;;6.60;4.57;;;;;;;22.77;45.87;98821.28;4995811;28;102876;-73
2023/05/29 08:26:43;;;;;;;4.95;4.32;;;;;;;23.91;45.25;98818.81;5012575;28;102586;-72
2023/05/29 08:29:31;;;;;;;5.20;4.70;;;;;;;23.53;43.15;98810.94;4998266;28;103959;-72
2023/05/29 08:32:19;;;;;;;5.63;4.53;;;;;;;25.61;43.01;98806.47;5000443;28;103107;-73
2023/05/29 08:35:09;;;;;;;5.72;4.35;;;;;;;26.25;41.64;98808.69;5011561;28;102704;-72
2023/05/29 08:37:57;;;;;;;6.20;4.80;;;;;;;23.63;45.27;98814.13;5012777;28;102964;-73
2023/05/29 08:40:47;;;;;;;5.65;4.60;;;;;;;25.72;41.65;98805.88;5012248;27;103248;-73
2023/05/29 08:43:35;;;;;;;5.63;4.68;;;;;;;24.76;42.84;98803.31;5020973;27;102972;-72
2023/05/29 08:46:25;;;;;;;5.65;4.43;;;;;;;25.76;41.90;98809.84;5020865;27;102987;-73
2023/05/29 08:49:17;;;;;;;4.63;3.87;;;;;;;27.24;39.97;98801.25;4990896;28;104664;-72
2023/05/29 08:52:12;;;;;;;4.57;4.13;;;;;;;27.34;39.05;98804.34;5009682;28;103068;-71
2023/05/29 08:55:00;;;;;;;6.35;4.68;;;;;;;24.57;42.58;98807.56;5009360;28;103896;-72
2023/05/29 08:57:51;;;;;;;5.65;4.10;;;;;;;26.61;40.72;98800.94;5006854;28;103683;-71
2023/05/29 09:00:40;;;;;;;5.45;4.80;;;;;;;25.41;42.11;98802.84;5008908;28;102974;-72
2023/05/29 09:03:29;;;;;;;15.70;5.00;;;;;;;26.83;40.55;98807.00;5013961;28;103903;-71
2023/05/29 09:06:18;;;;;;;4.82;3.90;;;;;;;26.37;41.25;98813.28;5016079;28;102940;-72
2023/05/29 09:09:07;;;;;;;4.93;4.07;;;;;;;26.51;40.78;98805.97;5001346;28;102740;-72
2023/05/29 09:11:57;;;;;;;7.00;4.30;;;;;;;27.28;40.09;98805.22;5001834;28;102681;-72
2023/05/29 09:14:48;;;;;;;6.03;4.50;;;;;;;28.29;37.36;98806.97;5005785;28;103056;-72
2023/05/29 09:17:36;;;;;;;5.80;4.77;;;;;;;27.78;37.35;98800.81;5014104;28;103015;-70
2023/05/29 09:20:25;;;;;;;5.45;4.10;;;;;;;26.63;40.52;98807.00;5009588;28;102937;-72
2023/05/29 09:23:14;;;;;;;5.90;4.40;;;;;;;26.27;40.78;98806.63;5014386;28;102886;-72
2023/05/29 09:26:03;;;;;;;5.43;4.50;;;;;;;26.50;39.84;98797.00;5009645;28;103959;-72
2023/05/29 09:28:52;;;;;;;4.80;4.30;;;;;;;27.46;39.75;98798.06;5007161;27;103900;-73
2023/05/29 09:31:47;;;;;;;6.85;4.88;;;;;;;26.14;39.64;98809.28;4995414;28;102950;-73
2023/05/29 09:34:36;;;;;;;6.75;4.70;;;;;;;26.71;38.70;98804.06;5000558;28;104105;-72
2023/05/29 09:37:25;;;;;;;5.45;4.35;;;;;;;27.68;39.84;98801.25;5007715;28;102975;-74
2023/05/29 09:40:13;;;;;;;4.95;4.55;;;;;;;26.61;38.04;98806.38;5003643;28;104227;-73
2023/05/29 09:43:09;;;;;;;4.40;4.00;;;;;;;29.22;35.96;98794.97;5014391;27;103210;-72
2023/05/29 09:45:59;;;;;;;7.20;5.05;;;;;;;27.51;36.94;98800.09;5016324;27;103423;-72
2023/05/29 09:48:48;;;;;;;6.10;4.72;;;;;;;27.55;37.64;98795.91;5008792;28;103100;-71
2023/05/29 09:51:36;;;;;;;5.40;4.40;;;;;;;27.71;38.01;98800.84;5006176;28;104277;-73
2023/05/29 09:54:24;;;;;;;5.53;4.25;;;;;;;27.94;38.39;98795.69;5002569;28;102693;-72
2023/05/29 09:57:14;;;;;;;6.17;3.97;;;;;;;26.76;37.70;98795.31;5010633;27;103286;-72
2023/05/29 10:00:12;;;;;;;4.72;4.07;;;;;;;26.39;37.37;98799.50;5002969;28;103109;-73
2023/05/29 10:03:03;;;;;;;7.00;4.40;;;;;;;26.69;37.09;98783.66;4992345;28;104367;-72
2023/05/29 10:05:56;;;;;;;5.35;3.88;;;;;;;25.78;37.09;98788.81;5011598;27;103300;-71
2023/05/29 10:08:49;;;;;;;5.45;4.10;;;;;;;26.17;36.99;98784.53;5014187;28;102686;-71
2023/05/29 10:11:39;;;;;;;5.13;4.30;;;;;;;26.88;35.42;98772.81;5012671;28;103143;-72
2023/05/29 10:14:31;;;;;;;5.63;4.00;;;;;;;26.11;36.58;98788.03;4999530;28;103013;-71
2023/05/29 10:17:26;;;;;;;5.55;4.43;;;;;;;25.87;37.28;98790.31;5019478;27;102537;-70
2023/05/29 10:20:17;;;;;;;5.28;4.30;;;;;;;26.62;36.78;98783.66;5008775;28;102850;-71
2023/05/29 10:23:07;;;;;;;6.60;4.23;;;;;;;27.26;37.46;98775.56;5011070;28;103159;-71
2023/05/29 10:26:07;;;;;;;4.25;3.45;;;;;;;27.67;34.99;98777.06;5001862;28;103087;-71
2023/05/29 10:28:59;;;;;;;5.13;4.25;;;;;;;28.12;34.36;98776.78;5005293;28;102733;-72
2023/05/29 10:31:59;;;;;;;5.10;4.00;;;;;;;29.30;32.12;98772.91;5010002;27;102761;-74
2023/05/29 10:34:56;;;;;;;4.33;3.90;;;;;;;28.11;33.08;98772.41;5012989;28;103837;-74
2023/05/29 10:37:52;;;;;;;4.90;3.45;;;;;;;29.48;35.55;98771.19;5003684;28;104488;-74
2023/05/29 10:40:40;;;;;;;7.30;4.32;;;;;;;29.16;32.55;98771.38;4995490;28;103207;-73
2023/05/29 10:43:33;;;;;;;4.50;3.75;;;;;;;28.51;33.39;98774.78;5012237;27;103039;-72
2023/05/29 10:46:22;;;;;;;4.78;4.00;;;;;;;27.77;35.35;98770.13;5013199;28;103178;-72
2023/05/29 10:49:16;;;;;;;5.50;3.78;;;;;;;28.89;33.23;98767.28;5019069;27;103005;-72
2023/05/29 10:52:11;;;;;;;6.13;3.80;;;;;;;26.23;34.32;98772.84;5002056;27;103032;-72
2023/05/29 10:55:03;;;;;;;4.97;4.15;;;;;;;26.67;35.58;98775.72;5018085;28;102976;-72
2023/05/29 10:57:54;;;;;;;5.50;3.72;;;;;;;27.09;34.05;98768.97;5004770;28;104358;-72
2023/05/29 11:05:28;;;;;;;5.07;3.80;;;;;;;26.44;34.27;98772.66;5016112;27;103199;-71
2023/05/29 11:08:30;;;;;;;6.38;3.63;;;;;;;27.46;33.20;98764.66;5013275;28;103172;-72
2023/05/29 11:11:31;;;;;;;4.97;3.55;;;;;;;27.99;33.81;98765.16;5014433;28;103494;-73
2023/05/29 11:14:21;;;;;;;7.28;3.83;;;;;;;27.41;32.92;98761.78;5002340;27;104136;-72
2023/05/29 11:17:10;;;;;;;4.63;3.50;;;;;;;26.72;32.64;98767.81;5015922;27;103256;-72
2023/05/29 11:20:06;;;;;;;4.82;3.80;;;;;;;26.65;33.68;98769.69;5013977;28;103069;-72
2023/05/29 11:23:07;;;;;;;5.55;3.65;;;;;;;27.20;32.84;98768.28;5006258;28;103038;-73
2023/05/29 11:25:57;;;;;;;4.25;3.20;;;;;;;26.75;33.21;98763.84;5017750;28;103279;-71
2023/05/29 11:28:45;;;;;;;4.40;3.70;;;;;;;28.52;31.51;98766.38;5019921;28;102868;-72
2023/05/29 11:31:36;;;;;;;3.95;3.40;;;;;;;27.95;30.38;98762.06;5017794;28;102845;-72
2023/05/29 11:34:28;;;;;;;5.30;3.90;;;;;;;28.47;31.18;98759.97;5014344;28;103370;-71
2023/05/29 11:37:17;;;;;;;4.63;3.53;;;;;;;27.10;32.98;98758.97;5006141;28;102978;-71
2023/05/29 11:40:07;;;;;;;4.15;3.20;;;;;;;28.05;31.81;98759.72;5019436;28;102644;-71
2023/05/29 11:42:56;;;;;;;4.57;3.33;;;;;;;28.66;31.00;98757.09;5015751;28;102792;-72
2023/05/29 11:45:45;;;;;;;3.73;3.40;;;;;;;29.01;29.71;98757.34;5017080;28;102967;-72
2023/05/29 11:48:33;;;;;;;4.18;3.28;;;;;;;28.09;31.13;98766.38;5011850;28;103137;-72
2023/05/29 11:51:21;;;;;;;4.27;3.37;;;;;;;29.52;28.23;98756.09;5008115;28;103213;-72
2023/05/29 11:54:12;;;;;;;4.53;3.50;;;;;;;28.35;30.15;98764.50;5014879;28;102883;-71
2023/05/29 11:57:01;;;;;;;5.77;3.70;;;;;;;26.56;32.12;98760.13;5013456;28;103023;-71
2023/05/29 11:59:58;;;;;;;5.47;3.55;;;;;;;26.39;31.71;98769.72;4979147;28;103060;-70
2023/05/29 12:02:47;;;;;;;3.85;3.40;;;;;;;28.53;30.52;98757.19;4995562;28;102948;-71
2023/05/29 12:05:46;;;;;;;3.63;3.33;;;;;;;27.50;31.54;98758.59;5018670;28;102883;-71
2023/05/29 12:08:35;;;;;;;4.78;3.40;;;;;;;27.70;30.36;98753.06;5015641;28;102984;-71
2023/05/29 12:11:24;;;;;;;4.57;3.30;;;;;;;27.02;30.97;98755.44;5002632;27;103199;-71
2023/05/29 12:14:13;;;;;;;4.22;3.20;;;;;;;28.84;28.76;98759.00;5020017;27;102736;-72
2023/05/29 12:17:02;;;;;;;4.00;3.33;;;;;;;29.15;28.37;98753.41;4993766;27;103004;-70
2023/05/29 12:19:30;;;;;;;4.40;3.60;;;;;;;28.50;28.74;98751.38;5016304;27;104425;-71
2023/05/29 12:21:59;;;;;;;4.70;3.30;;;;;;;27.98;30.48;98753.47;4997020;27;103096;-71
2023/05/29 12:24:28;;;;;;;3.97;3.40;;;;;;;27.53;31.21;98760.88;5011082;28;102591;-71
2023/05/29 12:27:10;;;;;;;5.10;3.40;;;;;;;28.19;29.45;98752.28;5016181;28;102963;-72
2023/05/29 12:29:38;;;;;;;4.72;3.20;;;;;;;27.68;29.52;98749.69;5014498;28;103952;-71
2023/05/29 12:32:11;;;;;;;3.47;3.17;;;;;;;27.45;29.16;98757.59;5017047;28;103547;-71
2023/05/29 12:34:41;;;;;;;4.22;3.10;;;;;;;27.09;29.97;98752.69;5014426;27;102972;-71
2023/05/29 12:37:13;;;;;;;4.03;3.60;;;;;;;27.40;30.53;98757.34;5011838;27;104153;-72
2023/05/29 12:39:44;;;;;;;4.45;3.70;;;;;;;28.45;28.65;98748.50;5015365;27;103319;-71
2023/05/29 12:42:13;;;;;;;3.60;3.20;;;;;;;26.83;28.91;98748.22;5017230;27;103033;-72
2023/05/29 12:44:42;;;;;;;3.83;3.30;;;;;;;27.55;29.14;98749.78;4984264;28;104004;-71
2023/05/29 12:47:14;;;;;;;5.57;3.10;;;;;;;27.44;31.01;98761.34;4990470;28;103209;-72
2023/05/29 12:49:42;;;;;;;3.80;3.33;;;;;;;27.15;30.57;98753.72;4990419;27;103208;-73
2023/05/29 12:52:15;;;;;;;4.57;3.10;;;;;;;29.19;29.62;98751.06;5014026;27;103173;-72
2023/05/29 12:54:45;;;;;;;3.85;3.20;;;;;;;27.19;29.83;98746.81;5020775;27;102638;-72
2023/05/29 12:57:13;;;;;;;4.45;3.40;;;;;;;27.77;29.73;98755.69;5010326;28;103481;-72
2023/05/29 12:59:41;;;;;;;4.60;3.47;;;;;;;26.94;29.97;98755.69;5010593;27;103274;-73
2023/05/29 13:02:09;;;;;;;3.80;3.45;;;;;;;28.74;29.34;98747.81;4991113;28;104349;-72
2023/05/29 13:04:38;;;;;;;5.00;3.65;;;;;;;26.58;29.85;98755.34;4990997;28;102637;-73
2023/05/29 13:07:09;;;;;;;4.25;3.30;;;;;;;27.25;29.30;98757.66;4989759;28;103951;-73
2023/05/29 13:09:37;;;;;;;4.35;3.40;;;;;;;27.59;29.07;98751.84;5015410;27;103430;-69